logo
Games tagged Naval
# Game Release date
Price
Score rank
(Userscore / Metascore)
Owners
Players
Playtime (Median)
Developer(s)
Publisher(s)
1 Total War: EMPIRE – Definitive Edition Mar 4, 2009 $24.99N/A (N/A/90%)1,000,000 .. 2,000,0000%00:00 (00:00)CREATIVE ASSEMBLY, Feral Interactive (Mac), Feral Interactive (Linux)SEGA, Feral Interactive (Mac), Feral Interactive (Linux)
2 Silent Hunter III Jun 13, 2008 $9.99N/A (N/A/90%)200,000 .. 500,0000%00:00 (00:00)UbisoftUbisoft
3 Sid Meier's Pirates! Jul 11, 2005 $9.99N/A (N/A/88%)200,000 .. 500,0000%00:00 (00:00)Firaxis Games2K
4 Sub Command Oct 26, 2006 $4.99N/A (N/A/84%)20,000 .. 50,0000%00:00 (00:00)SonalystsStrategy First
5 Dangerous Waters Feb 7, 2006 $4.99N/A (N/A/82%)100,000 .. 200,0000%00:00 (00:00)SonalystsStrategy First
6 World of Warships Nov 15, 2017 FreeN/A (N/A/81%)10,000,000 .. 20,000,0000%00:00 (00:00)Wargaming Group LimitedWargaming Group Limited
7 Total War: NAPOLEON – Definitive Edition Feb 25, 2010 $24.99N/A (N/A/81%)1,000,000 .. 2,000,0000%00:00 (00:00)CREATIVE ASSEMBLY, Feral Interactive (Mac)SEGA, Feral Interactive (Mac)
8 Barotrauma Mar 13, 2023 $17.49N/A (N/A/81%)1,000,000 .. 2,000,0000%00:00 (00:00)FakeFish, Undertow GamesDaedalic Entertainment
9 Silent Hunter: Wolves of the Pacific Jun 13, 2008 $9.99N/A (N/A/79%)100,000 .. 200,0000%00:00 (00:00)Ubisoft RomaniaUbisoft
10 Wargame: Red Dragon Apr 17, 2014 $29.99N/A (N/A/78%)1,000,000 .. 2,000,0000%00:00 (00:00)Eugen SystemsEugen Systems
11 Battlefleet Gothic: Armada Apr 21, 2016 $2.24N/A (N/A/77%)200,000 .. 500,0000%00:00 (00:00)Tindalos InteractiveFocus Entertainment
12 Battlestations: Midway Mar 15, 2007 $6.99N/A (N/A/76%)500,000 .. 1,000,0000%00:00 (00:00)Eidos InteractiveSquare Enix
13 Patrician III Nov 18, 2010 $4.99N/A (N/A/75%)100,000 .. 200,0000%00:00 (00:00)Ascaron Entertainment ltd.Kalypso Media Digital
14 Port Royale 2 Apr 30, 2004 $5.99N/A (N/A/75%)100,000 .. 200,0000%00:00 (00:00)Ascaron Entertainment ltd.Strategy First
15 Nantucket Jan 18, 2018 $17.99N/A (N/A/74%)100,000 .. 200,0000%00:00 (00:00)Picaresque GamesPicaresque Games
16 Assassin’s Creed Rogue Mar 9, 2015 $19.99N/A (N/A/74%)1,000,000 .. 2,000,0000%00:00 (00:00)Ubisoft Sofia, Ubisoft KievUbisoft
17 Battlestations Pacific May 12, 2009 N/AN/A (N/A/74%)200,000 .. 500,0000%00:00 (00:00)Eidos Studio HungarySquare Enix
18 Sea Dogs Jan 14, 2018 $3.59N/A (N/A/71%)0 .. 20,0000%00:00 (00:00)AkellaAkella
19 TransOcean 2: Rivals May 10, 2016 $19.99N/A (N/A/69%)100,000 .. 200,0000%00:00 (00:00)Deck13 Hamburgastragon Entertainment
20 Commander: Conquest of the Americas Jul 30, 2010 $9.99N/A (N/A/68%)50,000 .. 100,0000%00:00 (00:00)Nitro GamesNitro Games
21 Oil Rush Jan 25, 2012 FreeN/A (N/A/67%)200,000 .. 500,0000%00:00 (00:00)Unigine Corp.Unigine Corp.
22 East India Company Jul 31, 2009 $9.99N/A (N/A/67%)50,000 .. 100,0000%00:00 (00:00)Nitro GamesNitro Games
23 Pacific Storm Jun 24, 2008 $7.99N/A (N/A/67%)20,000 .. 50,0000%00:00 (00:00)Buka Entertainment, Lesta StudioESDigital Games
24 Rise of Venice Sep 27, 2013 $6.24N/A (N/A/66%)100,000 .. 200,0000%00:00 (00:00)Kalypso Media Digital
25 Silent Hunter 5: Battle of the Atlantic Mar 2010 $9.99N/A (N/A/62%)100,000 .. 200,0000%00:00 (00:00)Ubisoft RomaniaUbisoft
26 Windward May 12, 2015 $9.99N/A (N/A/61%)200,000 .. 500,0000%00:00 (00:00)Tasharen Entertainment Inc.Tasharen Entertainment Inc.
27 Sea Dogs: City of Abandoned Ships May 12, 2009 $2.39N/A (N/A/61%)20,000 .. 50,0000%00:00 (00:00)AkellaAkella
28 Tempest: Pirate Action RPG Aug 22, 2016 $5.24N/A (N/A/60%)200,000 .. 500,0000%00:00 (00:00)HeroCraftHeroCraft PC
29 Carrier Command: Gaea Mission Sep 28, 2012 $6.59N/A (N/A/60%)200,000 .. 500,0000%00:00 (00:00)Bohemia InteractiveBohemia Interactive
30 Pacific Storm Allies May 25, 2007 $1.99N/A (N/A/60%)20,000 .. 50,0000%00:00 (00:00)Lesta StudioESDigital Games
31 Naval Warfare May 25, 2011 $2.99N/A (N/A/57%)50,000 .. 100,0000%00:00 (00:00)Game Distillery s.r.o.Immanitas Entertainment GmbH
32 Ship Simulator Extremes Aug 27, 2010 $19.99N/A (N/A/49%)200,000 .. 500,0000%00:00 (00:00)VStepParadox Interactive
33 The Pirate: Plague of the Dead Oct 13, 2017 FreeN/A (N/A)100,000 .. 200,0000%00:00 (00:00)Home Net GamesHome Net Games
34 Man O' War: Corsair - Warhammer Naval Battles Apr 19, 2017 N/AN/A (N/A)50,000 .. 100,0000%00:00 (00:00)Evil Twin ArtworksEvil Twin Artworks
35 Seabed Prelude Feb 24, 2017 N/AN/A (N/A)0 .. 20,0000%00:00 (00:00)MythicOwlMythicOwl
36 GunFleet Feb 6, 2017 N/AN/A (N/A)20,000 .. 50,0000%00:00 (00:00)Areo GamingAreo Gaming
37 Florensia Nov 29, 2016 FreeN/A (N/A)200,000 .. 500,0000%00:00 (00:00)AHA EntertainmentGiiku Games
38 The Pirate: Caribbean Hunt Aug 24, 2016 FreeN/A (N/A)500,000 .. 1,000,0000%00:00 (00:00)Home Net GamesHome Net Games
39 Steel Ocean Nov 12, 2015 N/AN/A (N/A)500,000 .. 1,000,0000%00:00 (00:00)Changyou.com LimitedChangyou.com Limited
40 Command: Northern Inferno Oct 22, 2015 N/AN/A (N/A)0 .. 20,0000%00:00 (00:00)WarfareSimsSlitherine Ltd.
41 War of Beach Oct 15, 2015 FreeN/A (N/A)100,000 .. 200,0000%00:00 (00:00)LUCKY GIRLS LIMITEDLUCKY GIRLS LIMITED
42 Navy Field 2 : Conqueror of the Ocean Mar 5, 2015 N/AN/A (N/A)500,000 .. 1,000,0000%00:00 (00:00)SDEnterNetSDEnterNet
43 Command: Modern Air / Naval Operations WOTY Sep 26, 2014 N/AN/A (N/A)20,000 .. 50,0000%00:00 (00:00)WarfareSimsSlitherine Ltd.
44 NAVYFIELD Mar 18, 2000 N/AN/A (N/A)200,000 .. 500,0000%00:00 (00:00)SDEnterNETNaiadgames
45 Capsa Feb 3, 2022 FreeN/A (N/A)0 .. 20,0000%00:00 (00:00)db.works, VetronVetron
46 Subwar 2050 Jan 2, 1993 $9.99N/A (N/A)200,000 .. 500,0000%00:00 (00:00)Particle Systems Ltd.Interplay
47 Clad in Iron: Philippines 1898 Nov 14, 2017 $24.99N/A (N/A)0 .. 20,0000%00:00 (00:00)Totem GamesStrategy First
48 Mare Nostrvm Nov 2, 2017 $19.99N/A (N/A)0 .. 20,0000%00:00 (00:00)TurnopiaSlitherine Ltd.
49 Titanic: The Experience Oct 30, 2017 $3.99N/A (N/A)20,000 .. 50,0000%00:00 (00:00)Interactive Gaming StudiosInteractive Gaming Studios
50 Captain Firebeard and the Bay of Crows Oct 4, 2017 $1.99N/A (N/A)0 .. 20,0000%00:00 (00:00)Sapphire Dragon ProductionsSapphire Dragon Productions
51 战术狂想1(Chimera of Tactics 1) Sep 27, 2017 $0.99N/A (N/A)0 .. 20,0000%00:00 (00:00)自由愉悦小黄猫(Free pleasure little yellow cat)自由愉悦小黄猫(Free pleasure little yellow cat)
52 Tactics 2: War Sep 22, 2017 $19.99N/A (N/A)0 .. 20,0000%00:00 (00:00)Capt McCay SoftCapt McCay Soft
53 The Caribbean Sail Sep 19, 2017 $14.99N/A (N/A)20,000 .. 50,0000%00:00 (00:00)Victorian ClambakeVictorian Clambake
54 Clad in Iron: Gulf of Mexico 1864 Sep 5, 2017 $24.99N/A (N/A)0 .. 20,0000%00:00 (00:00)Totem GamesStrategy First
55 Blue Horizon Aug 18, 2017 N/AN/A (N/A)0 .. 20,0000%00:00 (00:00)DeletedDeleted
56 Ironclads 2: Caroline Islands War 1885 Jul 20, 2017 $1.99N/A (N/A)0 .. 20,0000%00:00 (00:00)Totem GamesStrategy First
57 Poseidon - Project Dark Sky Jul 19, 2017 $4.99N/A (N/A)0 .. 20,0000%00:00 (00:00)DP CorpDP Corp
58 Tactics: Bludgeons Blessing Jul 4, 2017 $19.99N/A (N/A)0 .. 20,0000%00:00 (00:00)Capt. McCay SoftCapt. McCay Soft
59 Carrier Deck Jun 15, 2017 $9.99N/A (N/A)100,000 .. 200,0000%00:00 (00:00)Every Single SoldierSlitherine Ltd.
60 Fishermurs Apr 14, 2017 $0.99N/A (N/A)50,000 .. 100,0000%00:00 (00:00)Reward HuntersValkyrie Initiative
61 Cold Waters Jun 5, 2017 $39.99N/A (N/A)100,000 .. 200,0000%00:00 (00:00)Killerfish GamesKillerfish Games
62 Magnificent Ships: Volume 2 May 18, 2017 $9.99N/A (N/A)0 .. 20,0000%00:00 (00:00)VROOMVROOM
63 Ironclads 2: Boshin War Apr 19, 2017 $1.99N/A (N/A)0 .. 20,0000%00:00 (00:00)Totem GamesStrategy First
64 Winds Of Trade Feb 13, 2017 $11.99N/A (N/A)20,000 .. 50,0000%00:00 (00:00)Rhombico GamesRhombico Games
65 Civil War: Battle of Petersburg Feb 8, 2017 $0.99N/A (N/A)50,000 .. 100,0000%00:00 (00:00)Cult SoftwareCult Software
66 Xenus 2. White gold. Nov 30, 2016 $14.99N/A (N/A)50,000 .. 100,0000%00:00 (00:00)Deep ShadowsGFI
67 Magnificent Ships: Volume 1 Nov 28, 2016 $9.99N/A (N/A)0 .. 20,0000%00:00 (00:00)VROOMVROOM
68 Ironclads 2: War of the Pacific Nov 15, 2016 $1.99N/A (N/A)20,000 .. 50,0000%00:00 (00:00)Totem GamesStrategy First
69 European Ship Simulator Nov 4, 2016 $19.99N/A (N/A)100,000 .. 200,0000%00:00 (00:00)ExcaliburExcalibur Games
70 World Ship Simulator Nov 4, 2016 $19.99N/A (N/A)50,000 .. 100,0000%00:00 (00:00)Odin Game StudioExcalibur Publishing
71 Ships 2017 Oct 19, 2016 $14.99N/A (N/A)20,000 .. 50,0000%00:00 (00:00)FragOutGames Box, SIG Publishing
72 Iron Sea Defenders Sep 9, 2016 $4.99N/A (N/A)100,000 .. 200,0000%00:00 (00:00)Creobit8Floor
73 The Last Leviathan Jun 22, 2016 N/AN/A (N/A)50,000 .. 100,0000%00:00 (00:00)Super Punk GamesSuper Punk Games
74 Combat Air Patrol 2: Military Flight Simulator Jun 6, 2016 $29.99N/A (N/A)0 .. 20,0000%00:00 (00:00)Sim155 LimitedMicroProse Software
75 The Inner Sea Mar 30, 2016 $11.99N/A (N/A)0 .. 20,0000%00:00 (00:00)dsquaredsquare
76 Atlantic Fleet Feb 25, 2016 $9.99N/A (N/A)50,000 .. 100,0000%00:00 (00:00)Killerfish GamesKillerfish Games
77 Blood and Gold: Caribbean! Dec 10, 2015 $19.99N/A (N/A)100,000 .. 200,0000%00:00 (00:00)Snowbird GamesSnowbird Games
78 Ironclads 2: American Civil War Nov 5, 2015 $1.99N/A (N/A)20,000 .. 50,0000%00:00 (00:00)Totem GamesStrategy First
79 My Paper Boat Sep 23, 2015 FreeN/A (N/A)0 .. 20,0000%00:00 (00:00)TML-StudiosAerosoft GmbH
80 Crash Dive Jul 6, 2015 $3.99N/A (N/A)100,000 .. 200,0000%00:00 (00:00)Panic Ensues SoftwarePanic Ensues Software
81 WarBirds - World War II Combat Aviation Apr 21, 2019 $14.99N/A (N/A)0 .. 20,0000%00:00 (00:00)iEntertainment Network InciEntertainment Network Inc
82 Wildlife Park - Wild Creatures Apr 1, 2015 $5.99N/A (N/A)0 .. 20,0000%00:00 (00:00)b-alive gmbhb-alive gmbh
83 Battle Fleet 2 Nov 20, 2014 $14.99N/A (N/A)50,000 .. 100,0000%00:00 (00:00)Mythical City GamesMythical City Games
84 Silent Service 2 Nov 6, 2014 $6.99N/A (N/A)20,000 .. 50,0000%00:00 (00:00)MicroProse Software, IncAtari, Nightdive Studios
85 Task Force 1942: Surface Naval Action in the South Pacific Nov 6, 2014 $6.99N/A (N/A)20,000 .. 50,0000%00:00 (00:00)MicroProse Software, IncAtari, Nightdive Studios
86 Silent Service Jan 1, 1985 $6.99N/A (N/A)0 .. 20,0000%00:00 (00:00)MicroProse Software, IncAtari, Nightdive Studios
87 TransOcean: The Shipping Company Sep 23, 2014 $19.99N/A (N/A)100,000 .. 200,0000%00:00 (00:00)Deck13 Hamburgastragon Entertainment
88 Victory At Sea Aug 8, 2014 $6.24N/A (N/A)200,000 .. 500,0000%00:00 (00:00)Evil Twin ArtworksEvil Twin Artworks
89 Pixel Piracy Jul 31, 2014 $14.99N/A (N/A)200,000 .. 500,0000%00:00 (00:00)Vitali KirpuVitali Kirpu
90 Wildlife Park 2 Jul 17, 2014 $6.99N/A (N/A)50,000 .. 100,0000%00:00 (00:00)b-alive gmbhb-alive gmbh
91 Ship Simulator: Maritime Search and Rescue Jul 1, 2014 $9.99N/A (N/A)50,000 .. 100,0000%00:00 (00:00)Reality Twist GmbHrondomedia GmbH
92 Battle Group 2 Jun 13, 2014 $1.99N/A (N/A)100,000 .. 200,0000%00:00 (00:00)Bane GamesMG Publishing
93 Assassin's Creed Freedom Cry Feb 25, 2014 $14.99N/A (N/A)200,000 .. 500,0000%00:00 (00:00)Ubisoft MontrealUbisoft
94 Sinking Simulator Oct 23, 2019 $0.99N/A (N/A)500,000 .. 1,000,0000%00:00 (00:00)WicparPac0master
95 Sea Dogs: To Each His Own Feb 12, 2016 $4.49N/A (N/A)200,000 .. 500,0000%00:00 (00:00)BlackMark StudioAkella, Valkyrie Initiative
96 Port Royale 3 May 4, 2012 $6.99N/A (N/A)200,000 .. 500,0000%00:00 (00:00)Gaming Minds StudiosKalypso Media Digital
97 Victorian Admirals Feb 1, 2012 $9.99N/A (N/A)0 .. 20,0000%00:00 (00:00)Totem GamesStrategy First
98 PT Boats: Knights of the Sea Oct 28, 2011 $6.99N/A (N/A)0 .. 20,0000%00:00 (00:00)Studio4Akella
99 PT Boats: South Gambit Oct 28, 2011 $6.99N/A (N/A)0 .. 20,0000%00:00 (00:00)studio4Akella
100 Ironclads: Schleswig War 1864 Jun 21, 2011 $1.99N/A (N/A)0 .. 20,0000%00:00 (00:00)Totem GamesStrategy First
101 Ironclads: Anglo Russian War 1866 Jun 21, 2011 $1.99N/A (N/A)0 .. 20,0000%00:00 (00:00)Totem gamesStrategy First
102 Ironclads: Chincha Islands War 1866 Jun 21, 2011 $1.99N/A (N/A)0 .. 20,0000%00:00 (00:00)Totem GamesStrategy First
103 Ironclads: High Seas Apr 28, 2010 $1.99N/A (N/A)20,000 .. 50,0000%00:00 (00:00)Totem GamesStrategy First
104 Ironclads: American Civil War Apr 28, 2010 $1.99N/A (N/A)20,000 .. 50,0000%00:00 (00:00)Totem GamesStrategy First
105 Silent Hunter: Wolves of the Pacific U-Boat Missions Jun 13, 2008 $9.99N/A (N/A)50,000 .. 100,0000%00:00 (00:00)Ubisoft RomaniaUbisoft
106 Wildlife Park 2 - Marine World Jul 17, 2014 $3.99N/A (N/A)20,000 .. 50,0000%00:00 (00:00)b-alive gmbhb-alive gmbh
107 Sea Dogs: Caribbean Tales Mar 15, 2018 $11.99N/A (N/A)20,000 .. 50,0000%00:00 (00:00)AkellaAkella
108 Fleet Command Oct 26, 2006 $4.99N/A (N/A)50,000 .. 100,0000%00:00 (00:00)SonalystsStrategy First
109 688(I) Hunter/Killer Oct 26, 2006 $4.99N/A (N/A)20,000 .. 50,0000%00:00 (00:00)SonalystsStrategy First
110 Gunboat Sep 4, 2020 $6.99N/A (N/A)50,000 .. 100,0000%00:00 (00:00)Accolade, Inc.Ziggurat
111 Search for the Titanic Jan 1, 1989 $4.99N/A (N/A)200,000 .. 500,0000%00:00 (00:00)Capstone SoftwareZiggurat
112 Ports of Call Classic Dec 1, 1986 $4.99N/A (N/A)200,000 .. 500,0000%00:00 (00:00)Dipl. Ing. Rolf-Dieter KleinDipl. Ing. Rolf-Dieter Klein
113 Assassin’s Creed IV Black Flag Coming soon $39.99N/A (N/A)2,000,000 .. 5,000,0000%00:00 (00:00)Ubisoft MontrealUbisoft
114 Strategic Command WWII: War in the Pacific Jul 18, 2024 $39.99N/A (N/A)0 .. 20,0000%00:00 (00:00)Fury SoftwareSlitherine Ltd.
115 Corsair`s Madness Jul 17, 2024 $8.99N/A (N/A)0 .. 20,0000%00:00 (00:00)Old PrawnMadnetic Games
116 Silent Depth 2: Pacific Jul 16, 2024 $11.69N/A (N/A)0 .. 20,0000%00:00 (00:00)MicroProse SoftwareMicroProse Software
117 Survival Africa Jul 2, 2024 $16.99N/A (N/A)0 .. 20,0000%00:00 (00:00)MeanDeanIconic Studio
118 Buccaneer Jul 1, 2024 $5.99N/A (N/A)0 .. 20,0000%00:00 (00:00)Divide By Zero SoftwareSNEG
119 Rota's Nautical Chronicles of Trade Jun 26, 2024 $14.99N/A (N/A)0 .. 20,0000%00:00 (00:00)Caro BuildersEmma Create
120 Republic of Pirates Jun 19, 2024 $24.99N/A (N/A)0 .. 20,0000%00:00 (00:00)Crazy Goat GamesPQube
121 UBOAT: The Silent Wolf VR Jun 19, 2024 $19.99N/A (N/A)20,000 .. 50,0000%00:00 (00:00)Titan GameZTitan GameZ
122 Coastal Defense Jun 7, 2024 $1.99N/A (N/A)0 .. 20,0000%00:00 (00:00)Weeti RantanenWeeti Rantanen
123 Ruiga Pirates May 24, 2024 $4.99N/A (N/A)0 .. 20,0000%00:00 (00:00)Valentware Games LTDValentware Games LTD
124 Ships At Sea May 23, 2024 $24.99N/A (N/A)100,000 .. 200,0000%00:00 (00:00)Misc GamesMisc Games
125 impossible island May 13, 2024 $4.99N/A (N/A)0 .. 20,0000%00:00 (00:00)Studio Gathering StormStudio Gathering Storm
126 Ports Of Call Deluxe 3D 2024 May 11, 2024 $14.99N/A (N/A)0 .. 20,0000%00:00 (00:00)Dipl. Ing. Rolf-Dieter KleinDipl. Ing. Rolf-Dieter Klein
127 Age of Water Apr 25, 2024 $29.99N/A (N/A)100,000 .. 200,0000%00:00 (00:00)Three Whales StudioGaijin Network Ltd
128 MarineVerse Cup - Sailboat Racing Apr 23, 2024 $19.99N/A (N/A)0 .. 20,0000%00:00 (00:00)MarineVerseMarineVerse
129 Uncrowned Apr 17, 2024 $14.99N/A (N/A)0 .. 20,0000%00:00 (00:00)Hidden Mountain GamesHidden Mountain Games
130 Harbor Captain Apr 10, 2024 $4.99N/A (N/A)0 .. 20,0000%00:00 (00:00)Urban IsotopeUrban Isotope
131 Pirate Dragons Mar 15, 2024 $2.99N/A (N/A)0 .. 20,0000%00:00 (00:00)SuperSixStudiosSuperSixStudios
132 Battle Marine Feb 27, 2024 $4.99N/A (N/A)0 .. 20,0000%00:00 (00:00)Yoji Suzuki, SUZUKIPLANYoji Suzuki, SUZUKIPLAN
133 Cursed Crew Feb 26, 2024 $20N/A (N/A)0 .. 20,0000%00:00 (00:00)Cracklewock GamesCracklewock Games
134 River Attack Feb 15, 2024 $4.99N/A (N/A)0 .. 20,0000%00:00 (00:00)Immersive GamesImmersive Games
135 Caribbean Legend Feb 15, 2024 $20.09N/A (N/A)100,000 .. 200,0000%00:00 (00:00)BlackMark StudioBlackMark Studio, Valkyrie Initiative
136 The Great Ocean Feb 15, 2024 $9.99N/A (N/A)0 .. 20,0000%00:00 (00:00)Actrio StudioActrio Studio
137 Tortuga - A Pirate's Tale Feb 13, 2024 $24.99N/A (N/A)200,000 .. 500,0000%00:00 (00:00)Gaming Minds StudiosKalypso Media
138 Corsairs Legacy - Pirate Action RPG & Sea Battles Jan 30, 2024 $17.99N/A (N/A)0 .. 20,0000%00:00 (00:00)MaurisMauris Games OU
139 Pirates! Showdown: Enhanced Edition Jan 26, 2024 $9.99N/A (N/A)0 .. 20,0000%00:00 (00:00)FlashPoint Games, LLCFlashPoint Games, LLC
140 Watch The Fish Jan 24, 2024 $1.99N/A (N/A)0 .. 20,0000%00:00 (00:00)Blackbird StudiosBlackbird Studios
141 Cutlass Call Jan 16, 2024 $199.99N/A (N/A)0 .. 20,0000%00:00 (00:00)ReHarmony GamesReHarmony Games
142 War Shore Jan 15, 2024 $1.99N/A (N/A)0 .. 20,0000%00:00 (00:00)Samuel HenriquesSamuel Henriques
143 Boaty Tanks 2 Jan 5, 2024 $9.99N/A (N/A)0 .. 20,0000%00:00 (00:00)EpiXR Games UGEpiXR Games UG
144 Great Naval Battles: The Final Fury Dec 21, 2023 $6.69N/A (N/A)0 .. 20,0000%00:00 (00:00)IO Design Group, Divide By Zero SoftwareSNEG
145 Destroyer: The U-Boat Hunter Dec 6, 2023 $14.99N/A (N/A)20,000 .. 50,0000%00:00 (00:00)Iron Wolf Studio S.A.Daedalic Entertainment
146 Aquarist VR Dec 4, 2023 $9.99N/A (N/A)0 .. 20,0000%00:00 (00:00)FreeMind S.A.PlayWay S.A., FreeMind S.A.
147 Jewel Legends: Atlantis Nov 18, 2023 $5.39N/A (N/A)0 .. 20,0000%00:00 (00:00)Cerasus MediaHH-Games
148 Blazing Sails Nov 13, 2023 $14.99N/A (N/A)100,000 .. 200,0000%00:00 (00:00)Get Up Games, Iceberg InteractiveIceberg Interactive
149 Hydrofoil Generation Nov 7, 2023 $19.99N/A (N/A)0 .. 20,0000%00:00 (00:00)Jaxx Vane StudioHOOK
150 Tide of Thieves Nov 7, 2023 $9.99N/A (N/A)0 .. 20,0000%00:00 (00:00)Note Missing GamesNote Missing Games
151 XR22-SEAGUARD Oct 16, 2023 $3.99N/A (N/A)0 .. 20,0000%00:00 (00:00)Jean-FrancoisJean-Francois
152 Captain Goose Oct 14, 2023 $1.99N/A (N/A)0 .. 20,0000%00:00 (00:00)DiaMMax GamesDiaMMax Games
153 Boaty Tanks Oct 13, 2023 $9.99N/A (N/A)0 .. 20,0000%00:00 (00:00)EpiXR Games UGEpiXR Games UG
154 Airship: Kingdoms Adrift Sep 21, 2023 $29.99N/A (N/A)50,000 .. 100,0000%00:00 (00:00)Revolution Industryindie.io, Gamersky Games
155 Get Them Boats: Orca Revenge Aug 30, 2023 $0.99N/A (N/A)0 .. 20,0000%00:00 (00:00)BefuddleBugBefuddleBug
156 Seas of Kahtaone Aug 25, 2023 $12.99N/A (N/A)20,000 .. 50,0000%00:00 (00:00)Adaptive RealmsAdaptive Realms
157 Captains of the Wacky Waters Aug 11, 2023 $19.99N/A (N/A)0 .. 20,0000%00:00 (00:00)Ceiling GamesCeiling Games
158 Docking Ships Jun 20, 2023 $1.99N/A (N/A)0 .. 20,0000%00:00 (00:00)Ponko Studio, LudohoodPonko Games
159 Summer Trip Cruise May 25, 2023 $12.99N/A (N/A)0 .. 20,0000%00:00 (00:00)Gius CaminitiGius Caminiti
160 Cruise Ship Manager May 24, 2023 $2.49N/A (N/A)0 .. 20,0000%00:00 (00:00)Image Power S.A.Image Power S.A.
161 Rule the Waves 3 May 18, 2023 $39.99N/A (N/A)20,000 .. 50,0000%00:00 (00:00)Naval Warfare SimulationsSlitherine Ltd.
162 Phijkchu Quest May 10, 2023 $1.99N/A (N/A)0 .. 20,0000%00:00 (00:00)PhijkchuGamesTeam Phijkchu
163 Sinking Simulator: Legacy May 10, 2023 $0.99N/A (N/A)0 .. 20,0000%00:00 (00:00)Luke WrenPac0master
164 Space Wing Cadet Apr 28, 2023 $4.99N/A (N/A)20,000 .. 50,0000%00:00 (00:00)DTPixelworkDTPixelwork
165 D.C.K.: Dock Chess King Apr 24, 2023 $1.99N/A (N/A)0 .. 20,0000%00:00 (00:00)Valentware GamesValentware Games
166 Beyond a Coral Sea Apr 23, 2023 $5.99N/A (N/A)0 .. 20,0000%00:00 (00:00)SnigelsoftSnigelsoft
167 The World of Pirates Apr 12, 2023 $44.99N/A (N/A)0 .. 20,0000%00:00 (00:00)Team47Games
168 1971: Indian Naval Front Apr 5, 2023 $14.99N/A (N/A)0 .. 20,0000%00:00 (00:00)Neosphere Interactive StudiosNeosphere Interactive Studios
169 Nauticalypse Mar 27, 2023 $2.99N/A (N/A)0 .. 20,0000%00:00 (00:00)ShadowHylianRetro Evolve
170 Sea of Craft Mar 9, 2023 $14.99N/A (N/A)20,000 .. 50,0000%00:00 (00:00)Wizard GamesWizard Games
171 Field of Arms: Tactics Mar 6, 2023 $14.99N/A (N/A)0 .. 20,0000%00:00 (00:00)BALANDRA S.A.SBALANDRA S.A.S
172 Waves of Steel Feb 6, 2023 $19.99N/A (N/A)0 .. 20,0000%00:00 (00:00)TMA Games LLCTMA Games LLC
173 The Adventurer's Domain Online Jan 26, 2023 $15.99N/A (N/A)0 .. 20,0000%00:00 (00:00)Unbalanced EquationsUnbalanced Equations
174 Ultimate Admiral: Dreadnoughts Jan 25, 2023 $34.99N/A (N/A)200,000 .. 500,0000%00:00 (00:00)Game-LabsGame-Labs
175 Ultra Fishing Jan 18, 2023 $0.79N/A (N/A)0 .. 20,0000%00:00 (00:00)Uğur ÇELİKUğur ÇELİK
176 A Rum Tale Jan 5, 2023 $0.99N/A (N/A)0 .. 20,0000%00:00 (00:00)ARCSTONE GAMESARCSTONE GAMES
177 Boat Simulator Dec 16, 2022 $9.99N/A (N/A)0 .. 20,0000%00:00 (00:00)Best Ride SimulatorsLunaria Games S.L
178 Aquarium Travels Dec 14, 2022 $4.99N/A (N/A)0 .. 20,0000%00:00 (00:00)C. Eduardo Nuñez U.Eduardo Nuñez
179 Beach Invasion 1944 Dec 2, 2022 $9.99N/A (N/A)20,000 .. 50,0000%00:00 (00:00)AIx2 GamesAIx2 Games
180 Pirates - Digital Strategy Game Dec 2, 2022 $9.99N/A (N/A)0 .. 20,0000%00:00 (00:00)Twin Dimensional ProductionsTwin Dimensional Productions
181 MODERN NAVAL COMBAT Dec 1, 2022 $19.99N/A (N/A)0 .. 20,0000%00:00 (00:00)黑丝带制作组电钮组
182 Ruler of the Waves 1916 Nov 29, 2022 $14.99N/A (N/A)0 .. 20,0000%00:00 (00:00)Falling Ninja ProductionsTop Secret Studios LLC
183 Ship of Fools Nov 22, 2022 $21.99N/A (N/A)200,000 .. 500,0000%00:00 (00:00)Fika ProductionsTeam17
184 PERCNOPS VIRTUAL RIG Nov 19, 2022 $29.99N/A (N/A)0 .. 20,0000%00:00 (00:00)PercnopsPercnops
185 Naval Hurricane Nov 16, 2022 $9.99N/A (N/A)0 .. 20,0000%00:00 (00:00)EfrilEfril
186 无限投影 Nov 7, 2022 $0.99N/A (N/A)50,000 .. 100,0000%00:00 (00:00)A2 Game StudioA2 Game Studio
187 Port Cranes : Container Age Oct 21, 2022 $5.99N/A (N/A)0 .. 20,0000%00:00 (00:00)Etchu Island ShipyardEtchu Island Shipyard
188 Salt 2: Shores of Gold Sep 20, 2022 $19.99N/A (N/A)50,000 .. 100,0000%00:00 (00:00)Lavaboots StudiosLavaboots Studios
189 The Spanish Privateer Sep 16, 2022 $14.99N/A (N/A)20,000 .. 50,0000%00:00 (00:00)SinSisters StudiosSinSisters Studios
190 Moon Whalers Sep 2, 2022 $4.99N/A (N/A)0 .. 20,0000%00:00 (00:00)Yusuke "JuicyChicken" HasegawaJuicyChickenGames
191 Windsurfing MMX Aug 29, 2022 $3.99N/A (N/A)0 .. 20,0000%00:00 (00:00)Jérôme SixSIX Simulations
192 River Raid 3D Aug 15, 2022 $4.99N/A (N/A)0 .. 20,0000%00:00 (00:00)AlekseyAlekseyN
193 SokoChess Aug 12, 2022 $3.49N/A (N/A)0 .. 20,0000%00:00 (00:00)Daisy GamesDaisy Games
194 Carrier Commander Aug 10, 2022 $7.99N/A (N/A)0 .. 20,0000%00:00 (00:00)ssss
195 Plane Attack Aug 8, 2022 $1.99N/A (N/A)0 .. 20,0000%00:00 (00:00)AlekseyAlekseyN
196 Boat Crew Aug 1, 2022 $19.99N/A (N/A)20,000 .. 50,0000%00:00 (00:00)Tabbing TabbyMicroProse Software
197 Yacht Mechanic Simulator Jul 28, 2022 $1.49N/A (N/A)20,000 .. 50,0000%00:00 (00:00)Punch Punk GamesImage Power S.A.
198 Project Angels - Visual Novel Jul 13, 2022 $9.99N/A (N/A)20,000 .. 50,0000%00:00 (00:00)Project Angels Dev, AlienzProjectNiji Games
199 Privateer Escape Jun 26, 2022 $3.99N/A (N/A)0 .. 20,0000%00:00 (00:00)Mobile Game StudioMobile Game Studio
200 SailSim Jun 8, 2022 $2.99N/A (N/A)0 .. 20,0000%00:00 (00:00)Demetris Rouslan ZavorotnitsienkoDemetris Rouslan Zavorotnitsienko
201 Trade Sails May 19, 2022 $4.99N/A (N/A)0 .. 20,0000%00:00 (00:00)Redsmith GamesRedsmith Games
202 Pair of Aces May 4, 2022 $9.99N/A (N/A)0 .. 20,0000%00:00 (00:00)Immobilehome StudiosImmobilehome Studios
203 Boating Simulator 2022 May 3, 2022 $19.99N/A (N/A)0 .. 20,0000%00:00 (00:00)Sebastian Mol, Yusuf Kenawy, Will Johnson, Kyle Norton, Arlen Barrett, Sam Carson, Martin Berman, Owen Griffiths, Euan AllisonGoEarth Ltd
204 Aircraft Carrier Survival Apr 20, 2022 $5.99N/A (N/A)50,000 .. 100,0000%00:00 (00:00)Gambit Games Studio, Creative Storm EntertainmentCreativeForge Games
205 Battleships: Command of the Sea Apr 20, 2022 $1.49N/A (N/A)0 .. 20,0000%00:00 (00:00)Ancient GamesCreativeForge Games
206 Midway:Sink the Japanese Aircraft Carriers Apr 20, 2022 $0.99N/A (N/A)0 .. 20,0000%00:00 (00:00)KL Game StudioKL Game Studio
207 IronWolf VR Apr 12, 2022 $19.99N/A (N/A)0 .. 20,0000%00:00 (00:00)Ionized StudiosIonized Studios
208 Maritime Calling Apr 12, 2022 $14.99N/A (N/A)0 .. 20,0000%00:00 (00:00)Tiamat GamesAnon
209 SeaWolf VR Apr 11, 2022 $1.49N/A (N/A)0 .. 20,0000%00:00 (00:00)Michal Bárta3DA
210 Buccaneers! Mar 7, 2022 $17.99N/A (N/A)20,000 .. 50,0000%00:00 (00:00)Skyward DigitalSkyward Digital
211 Harbor Tycoon Mar 4, 2022 $4.99N/A (N/A)0 .. 20,0000%00:00 (00:00)MegaSoft GamesMegaSoft Games
212 Boat Simulator Apprentice Feb 21, 2022 $8.99N/A (N/A)0 .. 20,0000%00:00 (00:00)VSG LABSVSG LABS
213 Helm or High Water Feb 17, 2022 $14.99N/A (N/A)0 .. 20,0000%00:00 (00:00)Jordan HobgoodJordan Hobgood
214 Inua - A Story in Ice and Time Feb 10, 2022 $14.99N/A (N/A)0 .. 20,0000%00:00 (00:00)The Pixel Hunt, IKO, ARTE FranceARTE France
215 Riding Seas Jan 31, 2022 $3.19N/A (N/A)0 .. 20,0000%00:00 (00:00)CatOnTree StudioCatOnTree Studio
216 Old Salt Jan 19, 2022 $14.99N/A (N/A)0 .. 20,0000%00:00 (00:00)Kneeshaw Developments, Never Board GamesKneeshaw Developments
217 Istanbul Ship Simulator Dec 20, 2021 $0.99N/A (N/A)0 .. 20,0000%00:00 (00:00)Istanbul SimulatorIstanbul Simulator
218 Rust Raiders Dec 20, 2021 $4.99N/A (N/A)0 .. 20,0000%00:00 (00:00)Overlord Game StudioOverlord Game Studio
219 Trails Of Gold Privateers Dec 16, 2021 $12.99N/A (N/A)0 .. 20,0000%00:00 (00:00)La Suite StudioLa Suite Studio, Plug In Digital
220 Great Lakes Simulator Dec 15, 2021 $24.99N/A (N/A)0 .. 20,0000%00:00 (00:00)Just Making Games
221 Ship Graveyard Simulator Nov 10, 2021 $14.99N/A (N/A)100,000 .. 200,0000%00:00 (00:00)Games IncubatorGames Incubator, PlayWay S.A.
222 Axis & Allies 1942 Online Nov 9, 2021 $19.99N/A (N/A)200,000 .. 500,0000%00:00 (00:00)BeamdogBeamdog
223 Das Boot: German U-Boat Simulation Nov 5, 2021 $6.99N/A (N/A)0 .. 20,0000%00:00 (00:00)Artech Digital Entertainment, Ltd.Ziggurat
224 Hidden Shapes Black Skull - Jigsaw Puzzle Game Aug 11, 2021 $1.99N/A (N/A)0 .. 20,0000%00:00 (00:00)YAW StudiosYAW Studios
225 SHIPS AT WAR Aug 5, 2021 $14.99N/A (N/A)0 .. 20,0000%00:00 (00:00)Golddorf SpieleentwicklungGolddorf Spieleentwicklung
226 Furious Seas Jul 18, 2021 $19.99N/A (N/A)20,000 .. 50,0000%00:00 (00:00)Future ImmersiveFuture Immersive
227 Submarine War Jul 13, 2021 $0.99N/A (N/A)0 .. 20,0000%00:00 (00:00)Sub518GameSub518Game
228 Ultra Boat Game!!! Jul 2, 2021 $1.99N/A (N/A)0 .. 20,0000%00:00 (00:00)TamashiiTamashii
229 Salt and Sails Jul 1, 2021 $0.99N/A (N/A)0 .. 20,0000%00:00 (00:00)DiaMMaxPiece Of Voxel
230 Mini ship wars Jun 29, 2021 $1.09N/A (N/A)0 .. 20,0000%00:00 (00:00)Phoenixxx GamesPhoenixxx Games
231 Girls' civilization 2 Jun 1, 2021 $12.99N/A (N/A)0 .. 20,0000%00:00 (00:00)MoondolinoMoondolino
232 King of Seas May 25, 2021 $24.99N/A (N/A)50,000 .. 100,0000%00:00 (00:00)3DCloudsTeam17
233 Dieselpunk Wars May 13, 2021 $1.49N/A (N/A)0 .. 20,0000%00:00 (00:00)Image Power S.A., Roasted GamesImage Power S.A., PlayWay S.A., HeartBeat Games
234 Underwater Wars May 10, 2021 $7.99N/A (N/A)0 .. 20,0000%00:00 (00:00)Dynamic Lab StudioDynamic Lab Studio
235 Apr 20, 2021 $24.99N/A (N/A)0 .. 20,0000%00:00 (00:00)Valkyrie Industries
236 Underwater Life Apr 20, 2021 $0.99N/A (N/A)0 .. 20,0000%00:00 (00:00)Stas Paty9mkinPiece Of Voxel
237 Country Discoverer Apr 16, 2021 $7.99N/A (N/A)0 .. 20,0000%00:00 (00:00)goatrope gamesgoatrope games
Overview

Naval

Games with this tag: 237
Average userscore: N/A%
Average metascore: 72%
Average playtime: 00:00
Total copies owned: 48,056,000
Average price: $11.83
Help

Owners: Estimated number of people owning this game. The number might be way too small for new releases and sometimes way too big for games that had free weekend event recently. Read more on About page.

Playtime: Average hours played in total per person that have actually launched this game since March 2009. This time is calculated for the whole lifetime, not for the particular year.

Average score: Average users and metacritic score for all games with this score assigned.

Average playtime: Average lifetime playtime for all games where this data is available.

Games in this genre: Self-explaining - number of games with this tag. Only inculdes games with sales data available.

Total copies owned: Refers to total copies of games with this tag acquired by users for the lifetime. Includes copies sold, downloaded for free and given out.

This number might be too small for recently released games or too big for games that had a free weekend in the last couple of months.

Graphs

Login required.

Please register or log in to see this information.

Login required.

Please register or log in to see this information.